Ponderosa High School (Parker), Colorado
Current Conditions -  °F | °C
As of 2:53 PM on Sunday 25 Jan 2015 (Local Time) from KAPA Reporting Station
Broken Clouds Broken Clouds  
Wind Chill: 57°   Ceiling: 20000
Heat Index: 57°   Visibility: 10mi
Dew Point: 24°   Wind: 13mph
Humidity: 28%   Direction: 330°NNW
Pressure: 30.12"   Gusts: NA
Location:  39.43627°N, 104.7562°W
Report Text: KAPA 252153Z 33011KT 10SM FEW050 FEW120 BKN200 14/M04 A3012 RMK AO2 SLP196 T01391044
Loading
Personal Weather Stations






























Interactive Weather Map New forecast layout! Learn more

10-Day Weather Forecast

Advertisements
Track Severe Weather on mobile